sensor_id;sensor_type;location;lat;lon;timestamp;P1;durP1;ratioP1;P2;durP2;ratioP2
8683;SDS011;4379;59.744;18.206;2023-11-19T00:02:17;1.97;;;1.90;;
8683;SDS011;4379;59.744;18.206;2023-11-19T00:04:45;2.10;;;2.00;;
8683;SDS011;4379;59.744;18.206;2023-11-19T00:07:12;1.97;;;1.97;;
8683;SDS011;4379;59.744;18.206;2023-11-19T00:09:40;2.13;;;2.03;;
8683;SDS011;4379;59.744;18.206;2023-11-19T00:12:07;2.00;;;1.90;;
8683;SDS011;4379;59.744;18.206;2023-11-19T00:14:34;1.60;;;1.60;;
8683;SDS011;4379;59.744;18.206;2023-11-19T00:17:01;2.50;;;2.00;;
8683;SDS011;4379;59.744;18.206;2023-11-19T00:19:28;1.63;;;1.63;;
8683;SDS011;4379;59.744;18.206;2023-11-19T00:21:55;1.70;;;1.70;;
8683;SDS011;4379;59.744;18.206;2023-11-19T00:24:22;1.50;;;1.50;;
8683;SDS011;4379;59.744;18.206;2023-11-19T00:26:49;4.70;;;2.23;;
8683;SDS011;4379;59.744;18.206;2023-11-19T00:29:18;2.07;;;1.97;;
8683;SDS011;4379;59.744;18.206;2023-11-19T00:31:46;2.20;;;2.10;;
8683;SDS011;4379;59.744;18.206;2023-11-19T00:34:13;2.03;;;1.93;;
8683;SDS011;4379;59.744;18.206;2023-11-19T00:36:40;2.20;;;2.10;;
8683;SDS011;4379;59.744;18.206;2023-11-19T00:39:07;2.10;;;2.00;;
8683;SDS011;4379;59.744;18.206;2023-11-19T00:41:34;2.00;;;1.83;;
8683;SDS011;4379;59.744;18.206;2023-11-19T00:44:01;1.93;;;1.90;;
8683;SDS011;4379;59.744;18.206;2023-11-19T00:46:29;1.97;;;1.90;;
8683;SDS011;4379;59.744;18.206;2023-11-19T00:48:56;2.10;;;2.00;;
8683;SDS011;4379;59.744;18.206;2023-11-19T00:51:25;1.80;;;1.80;;
8683;SDS011;4379;59.744;18.206;2023-11-19T00:53:52;1.83;;;1.83;;
8683;SDS011;4379;59.744;18.206;2023-11-19T00:56:19;1.80;;;1.80;;
8683;SDS011;4379;59.744;18.206;2023-11-19T00:58:46;2.10;;;2.00;;
8683;SDS011;4379;59.744;18.206;2023-11-19T01:01:14;1.60;;;1.60;;
8683;SDS011;4379;59.744;18.206;2023-11-19T01:03:41;1.80;;;1.80;;
8683;SDS011;4379;59.744;18.206;2023-11-19T01:06:08;2.00;;;2.00;;
8683;SDS011;4379;59.744;18.206;2023-11-19T01:08:35;1.90;;;1.80;;
8683;SDS011;4379;59.744;18.206;2023-11-19T01:11:02;2.20;;;2.10;;
8683;SDS011;4379;59.744;18.206;2023-11-19T01:13:30;2.20;;;2.10;;
8683;SDS011;4379;59.744;18.206;2023-11-19T01:15:57;2.23;;;2.13;;
8683;SDS011;4379;59.744;18.206;2023-11-19T01:18:24;2.07;;;1.97;;
8683;SDS011;4379;59.744;18.206;2023-11-19T01:20:51;2.03;;;1.93;;
8683;SDS011;4379;59.744;18.206;2023-11-19T01:23:18;2.30;;;2.20;;
8683;SDS011;4379;59.744;18.206;2023-11-19T01:25:45;2.17;;;2.03;;
8683;SDS011;4379;59.744;18.206;2023-11-19T01:28:14;2.00;;;1.90;;
8683;SDS011;4379;59.744;18.206;2023-11-19T01:30:41;2.20;;;2.10;;
8683;SDS011;4379;59.744;18.206;2023-11-19T01:33:08;2.07;;;1.97;;
8683;SDS011;4379;59.744;18.206;2023-11-19T01:35:35;2.70;;;2.50;;
8683;SDS011;4379;59.744;18.206;2023-11-19T01:38:02;2.17;;;1.80;;
8683;SDS011;4379;59.744;18.206;2023-11-19T01:40:29;2.17;;;2.07;;
8683;SDS011;4379;59.744;18.206;2023-11-19T01:42:56;2.03;;;1.87;;
8683;SDS011;4379;59.744;18.206;2023-11-19T01:45:27;2.10;;;2.00;;
8683;SDS011;4379;59.744;18.206;2023-11-19T01:48:00;1.77;;;1.67;;
8683;SDS011;4379;59.744;18.206;2023-11-19T01:50:30;1.43;;;1.40;;
8683;SDS011;4379;59.744;18.206;2023-11-19T01:52:59;1.87;;;1.77;;
8683;SDS011;4379;59.744;18.206;2023-11-19T01:55:27;1.90;;;1.80;;
8683;SDS011;4379;59.744;18.206;2023-11-19T01:57:55;2.00;;;1.90;;
8683;SDS011;4379;59.744;18.206;2023-11-19T02:00:27;2.10;;;2.00;;
8683;SDS011;4379;59.744;18.206;2023-11-19T02:02:54;1.87;;;1.77;;
8683;SDS011;4379;59.744;18.206;2023-11-19T02:05:22;2.07;;;1.97;;
8683;SDS011;4379;59.744;18.206;2023-11-19T02:07:50;1.90;;;1.90;;
8683;SDS011;4379;59.744;18.206;2023-11-19T02:10:17;2.30;;;2.07;;
8683;SDS011;4379;59.744;18.206;2023-11-19T02:12:45;2.03;;;1.80;;
8683;SDS011;4379;59.744;18.206;2023-11-19T02:15:13;2.03;;;1.93;;
8683;SDS011;4379;59.744;18.206;2023-11-19T02:17:40;2.00;;;1.80;;
8683;SDS011;4379;59.744;18.206;2023-11-19T02:20:07;1.93;;;1.83;;
8683;SDS011;4379;59.744;18.206;2023-11-19T02:22:36;1.90;;;1.80;;
8683;SDS011;4379;59.744;18.206;2023-11-19T02:25:15;1.80;;;1.70;;
8683;SDS011;4379;59.744;18.206;2023-11-19T02:27:56;1.70;;;1.70;;
8683;SDS011;4379;59.744;18.206;2023-11-19T02:30:26;2.10;;;2.00;;
8683;SDS011;4379;59.744;18.206;2023-11-19T02:32:55;1.90;;;1.80;;
8683;SDS011;4379;59.744;18.206;2023-11-19T02:35:24;2.00;;;1.90;;
8683;SDS011;4379;59.744;18.206;2023-11-19T02:37:57;1.60;;;1.60;;
8683;SDS011;4379;59.744;18.206;2023-11-19T02:40:30;1.80;;;1.80;;
8683;SDS011;4379;59.744;18.206;2023-11-19T02:42:57;1.67;;;1.67;;
8683;SDS011;4379;59.744;18.206;2023-11-19T02:45:24;2.00;;;1.90;;
8683;SDS011;4379;59.744;18.206;2023-11-19T02:47:53;1.77;;;1.77;;
8683;SDS011;4379;59.744;18.206;2023-11-19T02:50:21;1.50;;;1.50;;
8683;SDS011;4379;59.744;18.206;2023-11-19T02:52:53;1.83;;;1.73;;
8683;SDS011;4379;59.744;18.206;2023-11-19T02:55:23;1.90;;;1.80;;
8683;SDS011;4379;59.744;18.206;2023-11-19T02:57:51;1.97;;;1.87;;
8683;SDS011;4379;59.744;18.206;2023-11-19T03:00:20;2.03;;;1.93;;
8683;SDS011;4379;59.744;18.206;2023-11-19T03:02:57;1.73;;;1.73;;
8683;SDS011;4379;59.744;18.206;2023-11-19T03:05:36;1.57;;;1.57;;
8683;SDS011;4379;59.744;18.206;2023-11-19T03:08:03;1.80;;;1.80;;
8683;SDS011;4379;59.744;18.206;2023-11-19T03:10:31;2.00;;;1.90;;
8683;SDS011;4379;59.744;18.206;2023-11-19T03:12:58;2.00;;;1.90;;
8683;SDS011;4379;59.744;18.206;2023-11-19T03:15:25;1.90;;;1.80;;
8683;SDS011;4379;59.744;18.206;2023-11-19T03:17:52;1.50;;;1.50;;
8683;SDS011;4379;59.744;18.206;2023-11-19T03:20:20;2.20;;;2.00;;
8683;SDS011;4379;59.744;18.206;2023-11-19T03:22:47;1.80;;;1.80;;
8683;SDS011;4379;59.744;18.206;2023-11-19T03:25:14;1.90;;;1.83;;
8683;SDS011;4379;59.744;18.206;2023-11-19T03:27:42;1.90;;;1.80;;
8683;SDS011;4379;59.744;18.206;2023-11-19T03:30:09;3.90;;;1.80;;
8683;SDS011;4379;59.744;18.206;2023-11-19T03:32:37;1.83;;;1.80;;
8683;SDS011;4379;59.744;18.206;2023-11-19T03:35:05;1.70;;;1.60;;
8683;SDS011;4379;59.744;18.206;2023-11-19T03:37:36;2.00;;;1.90;;
8683;SDS011;4379;59.744;18.206;2023-11-19T03:40:03;2.37;;;1.80;;
8683;SDS011;4379;59.744;18.206;2023-11-19T03:42:31;1.90;;;1.80;;
8683;SDS011;4379;59.744;18.206;2023-11-19T03:44:58;1.90;;;1.83;;
8683;SDS011;4379;59.744;18.206;2023-11-19T03:47:25;2.20;;;1.60;;
8683;SDS011;4379;59.744;18.206;2023-11-19T03:49:52;1.73;;;1.70;;
8683;SDS011;4379;59.744;18.206;2023-11-19T03:52:19;1.53;;;1.53;;
8683;SDS011;4379;59.744;18.206;2023-11-19T03:54:47;1.70;;;1.60;;
8683;SDS011;4379;59.744;18.206;2023-11-19T03:57:14;1.70;;;1.70;;
8683;SDS011;4379;59.744;18.206;2023-11-19T03:59:42;1.57;;;1.33;;
8683;SDS011;4379;59.744;18.206;2023-11-19T04:02:09;1.93;;;1.83;;
8683;SDS011;4379;59.744;18.206;2023-11-19T04:04:36;1.90;;;1.80;;
8683;SDS011;4379;59.744;18.206;2023-11-19T04:07:05;2.10;;;2.00;;
8683;SDS011;4379;59.744;18.206;2023-11-19T04:09:33;1.80;;;1.70;;
8683;SDS011;4379;59.744;18.206;2023-11-19T04:12:00;2.10;;;2.00;;
8683;SDS011;4379;59.744;18.206;2023-11-19T04:14:27;2.20;;;1.97;;
8683;SDS011;4379;59.744;18.206;2023-11-19T04:16:54;1.70;;;1.60;;
8683;SDS011;4379;59.744;18.206;2023-11-19T04:19:22;2.00;;;1.90;;
8683;SDS011;4379;59.744;18.206;2023-11-19T04:21:49;1.73;;;1.73;;
8683;SDS011;4379;59.744;18.206;2023-11-19T04:24:16;1.87;;;1.80;;
8683;SDS011;4379;59.744;18.206;2023-11-19T04:26:43;1.70;;;1.70;;
8683;SDS011;4379;59.744;18.206;2023-11-19T04:29:12;1.83;;;1.73;;
8683;SDS011;4379;59.744;18.206;2023-11-19T04:31:39;1.60;;;1.60;;
8683;SDS011;4379;59.744;18.206;2023-11-19T04:34:07;1.60;;;1.60;;
8683;SDS011;4379;59.744;18.206;2023-11-19T04:36:34;1.43;;;1.43;;
8683;SDS011;4379;59.744;18.206;2023-11-19T04:39:01;1.53;;;1.43;;
8683;SDS011;4379;59.744;18.206;2023-11-19T04:41:29;1.40;;;1.40;;
8683;SDS011;4379;59.744;18.206;2023-11-19T04:43:56;1.50;;;1.50;;
8683;SDS011;4379;59.744;18.206;2023-11-19T04:46:23;1.40;;;1.40;;
8683;SDS011;4379;59.744;18.206;2023-11-19T04:48:50;1.50;;;1.50;;
8683;SDS011;4379;59.744;18.206;2023-11-19T04:51:18;1.37;;;1.37;;
8683;SDS011;4379;59.744;18.206;2023-11-19T04:53:45;1.43;;;1.43;;
8683;SDS011;4379;59.744;18.206;2023-11-19T04:56:12;1.43;;;1.43;;
8683;SDS011;4379;59.744;18.206;2023-11-19T04:58:39;1.63;;;1.60;;
8683;SDS011;4379;59.744;18.206;2023-11-19T05:01:12;1.70;;;1.60;;
8683;SDS011;4379;59.744;18.206;2023-11-19T05:03:43;1.73;;;1.63;;
8683;SDS011;4379;59.744;18.206;2023-11-19T05:06:12;1.70;;;1.60;;
8683;SDS011;4379;59.744;18.206;2023-11-19T05:08:39;1.80;;;1.70;;
8683;SDS011;4379;59.744;18.206;2023-11-19T05:11:06;1.50;;;1.50;;
8683;SDS011;4379;59.744;18.206;2023-11-19T05:13:33;1.87;;;1.77;;
8683;SDS011;4379;59.744;18.206;2023-11-19T05:16:00;1.77;;;1.70;;
8683;SDS011;4379;59.744;18.206;2023-11-19T05:18:27;2.50;;;1.90;;
8683;SDS011;4379;59.744;18.206;2023-11-19T05:20:54;2.20;;;2.10;;
8683;SDS011;4379;59.744;18.206;2023-11-19T05:23:21;1.97;;;1.83;;
8683;SDS011;4379;59.744;18.206;2023-11-19T05:25:48;2.00;;;1.90;;
8683;SDS011;4379;59.744;18.206;2023-11-19T05:28:15;2.17;;;2.07;;
8683;SDS011;4379;59.744;18.206;2023-11-19T05:30:42;2.20;;;2.10;;
8683;SDS011;4379;59.744;18.206;2023-11-19T05:33:09;1.50;;;1.50;;
8683;SDS011;4379;59.744;18.206;2023-11-19T05:35:37;1.90;;;1.80;;
8683;SDS011;4379;59.744;18.206;2023-11-19T05:38:04;1.80;;;1.80;;
8683;SDS011;4379;59.744;18.206;2023-11-19T05:40:32;1.67;;;1.67;;
8683;SDS011;4379;59.744;18.206;2023-11-19T05:42:59;2.03;;;1.93;;
8683;SDS011;4379;59.744;18.206;2023-11-19T05:45:26;2.20;;;2.10;;
8683;SDS011;4379;59.744;18.206;2023-11-19T05:47:53;1.90;;;1.80;;
8683;SDS011;4379;59.744;18.206;2023-11-19T05:50:20;2.00;;;1.90;;
8683;SDS011;4379;59.744;18.206;2023-11-19T05:52:48;2.00;;;1.90;;
8683;SDS011;4379;59.744;18.206;2023-11-19T05:55:15;1.80;;;1.80;;
8683;SDS011;4379;59.744;18.206;2023-11-19T05:57:42;1.97;;;1.87;;
8683;SDS011;4379;59.744;18.206;2023-11-19T06:00:12;1.73;;;1.70;;
8683;SDS011;4379;59.744;18.206;2023-11-19T06:02:42;1.60;;;1.60;;
8683;SDS011;4379;59.744;18.206;2023-11-19T06:05:09;2.10;;;2.00;;
8683;SDS011;4379;59.744;18.206;2023-11-19T06:07:36;1.80;;;1.80;;
8683;SDS011;4379;59.744;18.206;2023-11-19T06:10:05;2.13;;;2.03;;
8683;SDS011;4379;59.744;18.206;2023-11-19T06:12:33;2.07;;;1.87;;
8683;SDS011;4379;59.744;18.206;2023-11-19T06:15:04;1.83;;;1.80;;
8683;SDS011;4379;59.744;18.206;2023-11-19T06:17:32;2.10;;;2.00;;
8683;SDS011;4379;59.744;18.206;2023-11-19T06:19:59;2.00;;;1.90;;
8683;SDS011;4379;59.744;18.206;2023-11-19T06:22:27;2.03;;;1.93;;
8683;SDS011;4379;59.744;18.206;2023-11-19T06:24:54;2.17;;;2.07;;
8683;SDS011;4379;59.744;18.206;2023-11-19T06:27:21;1.90;;;1.80;;
8683;SDS011;4379;59.744;18.206;2023-11-19T06:29:48;1.90;;;1.80;;
8683;SDS011;4379;59.744;18.206;2023-11-19T06:32:16;1.80;;;1.80;;
8683;SDS011;4379;59.744;18.206;2023-11-19T06:34:43;1.60;;;1.60;;
8683;SDS011;4379;59.744;18.206;2023-11-19T06:37:10;1.60;;;1.60;;
8683;SDS011;4379;59.744;18.206;2023-11-19T06:39:37;1.77;;;1.77;;
8683;SDS011;4379;59.744;18.206;2023-11-19T06:42:04;1.70;;;1.70;;
8683;SDS011;4379;59.744;18.206;2023-11-19T06:44:31;1.70;;;1.60;;
8683;SDS011;4379;59.744;18.206;2023-11-19T06:46:58;1.60;;;1.60;;
8683;SDS011;4379;59.744;18.206;2023-11-19T06:49:25;1.40;;;1.40;;
8683;SDS011;4379;59.744;18.206;2023-11-19T06:51:52;1.47;;;1.47;;
8683;SDS011;4379;59.744;18.206;2023-11-19T06:54:19;2.30;;;1.50;;
8683;SDS011;4379;59.744;18.206;2023-11-19T06:56:48;1.30;;;1.30;;
8683;SDS011;4379;59.744;18.206;2023-11-19T06:59:15;1.20;;;1.20;;
8683;SDS011;4379;59.744;18.206;2023-11-19T07:01:42;1.40;;;1.40;;
8683;SDS011;4379;59.744;18.206;2023-11-19T07:04:10;1.50;;;1.50;;
8683;SDS011;4379;59.744;18.206;2023-11-19T07:06:41;1.30;;;1.30;;
8683;SDS011;4379;59.744;18.206;2023-11-19T07:09:08;1.63;;;1.53;;
8683;SDS011;4379;59.744;18.206;2023-11-19T07:11:37;1.57;;;1.57;;
8683;SDS011;4379;59.744;18.206;2023-11-19T07:14:06;1.40;;;1.40;;
8683;SDS011;4379;59.744;18.206;2023-11-19T07:16:34;1.60;;;1.60;;
8683;SDS011;4379;59.744;18.206;2023-11-19T07:19:04;1.50;;;1.50;;
8683;SDS011;4379;59.744;18.206;2023-11-19T07:21:31;1.80;;;1.70;;
8683;SDS011;4379;59.744;18.206;2023-11-19T07:24:06;1.60;;;1.60;;
8683;SDS011;4379;59.744;18.206;2023-11-19T07:26:33;1.60;;;1.60;;
8683;SDS011;4379;59.744;18.206;2023-11-19T07:29:00;1.60;;;1.60;;
8683;SDS011;4379;59.744;18.206;2023-11-19T07:31:28;1.53;;;1.53;;
8683;SDS011;4379;59.744;18.206;2023-11-19T07:33:55;1.40;;;1.40;;
8683;SDS011;4379;59.744;18.206;2023-11-19T07:36:22;1.20;;;1.20;;
8683;SDS011;4379;59.744;18.206;2023-11-19T07:38:49;1.10;;;1.10;;
8683;SDS011;4379;59.744;18.206;2023-11-19T07:41:16;1.50;;;1.40;;
8683;SDS011;4379;59.744;18.206;2023-11-19T07:43:44;1.20;;;1.20;;
8683;SDS011;4379;59.744;18.206;2023-11-19T07:46:11;2.60;;;1.50;;
8683;SDS011;4379;59.744;18.206;2023-11-19T07:48:41;1.27;;;1.27;;
8683;SDS011;4379;59.744;18.206;2023-11-19T07:51:10;1.30;;;1.30;;
8683;SDS011;4379;59.744;18.206;2023-11-19T07:53:38;1.20;;;1.20;;
8683;SDS011;4379;59.744;18.206;2023-11-19T07:56:06;1.37;;;1.37;;
8683;SDS011;4379;59.744;18.206;2023-11-19T07:58:34;1.27;;;1.23;;
8683;SDS011;4379;59.744;18.206;2023-11-19T08:01:01;1.67;;;1.50;;
8683;SDS011;4379;59.744;18.206;2023-11-19T08:03:28;1.50;;;1.50;;
8683;SDS011;4379;59.744;18.206;2023-11-19T08:05:56;1.40;;;1.33;;
8683;SDS011;4379;59.744;18.206;2023-11-19T08:08:23;1.33;;;1.23;;
8683;SDS011;4379;59.744;18.206;2023-11-19T08:10:50;1.40;;;1.30;;
8683;SDS011;4379;59.744;18.206;2023-11-19T08:13:19;1.63;;;1.63;;
8683;SDS011;4379;59.744;18.206;2023-11-19T08:15:47;1.50;;;1.50;;
8683;SDS011;4379;59.744;18.206;2023-11-19T08:18:14;1.50;;;1.40;;
8683;SDS011;4379;59.744;18.206;2023-11-19T08:20:41;1.70;;;1.60;;
8683;SDS011;4379;59.744;18.206;2023-11-19T08:23:10;1.50;;;1.50;;
8683;SDS011;4379;59.744;18.206;2023-11-19T08:25:38;1.47;;;1.37;;
8683;SDS011;4379;59.744;18.206;2023-11-19T08:28:05;1.80;;;1.70;;
8683;SDS011;4379;59.744;18.206;2023-11-19T08:30:32;1.60;;;1.60;;
8683;SDS011;4379;59.744;18.206;2023-11-19T08:33:00;1.50;;;1.50;;
8683;SDS011;4379;59.744;18.206;2023-11-19T08:35:29;1.53;;;1.53;;
8683;SDS011;4379;59.744;18.206;2023-11-19T08:37:57;1.50;;;1.50;;
8683;SDS011;4379;59.744;18.206;2023-11-19T08:40:25;1.33;;;1.23;;
8683;SDS011;4379;59.744;18.206;2023-11-19T08:42:52;1.60;;;1.50;;
8683;SDS011;4379;59.744;18.206;2023-11-19T08:45:19;1.43;;;1.43;;
8683;SDS011;4379;59.744;18.206;2023-11-19T08:47:46;1.20;;;1.20;;
8683;SDS011;4379;59.744;18.206;2023-11-19T08:50:14;1.40;;;1.40;;
8683;SDS011;4379;59.744;18.206;2023-11-19T08:52:41;1.73;;;1.50;;
8683;SDS011;4379;59.744;18.206;2023-11-19T08:55:08;1.60;;;1.60;;
8683;SDS011;4379;59.744;18.206;2023-11-19T08:57:36;1.30;;;1.30;;
8683;SDS011;4379;59.744;18.206;2023-11-19T09:00:03;1.43;;;1.33;;
8683;SDS011;4379;59.744;18.206;2023-11-19T09:02:36;1.53;;;1.50;;
8683;SDS011;4379;59.744;18.206;2023-11-19T09:05:04;1.63;;;1.60;;
8683;SDS011;4379;59.744;18.206;2023-11-19T09:07:34;1.20;;;1.20;;
8683;SDS011;4379;59.744;18.206;2023-11-19T09:10:01;2.00;;;1.90;;
8683;SDS011;4379;59.744;18.206;2023-11-19T09:12:31;1.83;;;1.70;;
8683;SDS011;4379;59.744;18.206;2023-11-19T09:14:58;1.67;;;1.57;;
8683;SDS011;4379;59.744;18.206;2023-11-19T09:17:25;1.60;;;1.60;;
8683;SDS011;4379;59.744;18.206;2023-11-19T09:19:52;1.30;;;1.30;;
8683;SDS011;4379;59.744;18.206;2023-11-19T09:22:19;1.60;;;1.50;;
8683;SDS011;4379;59.744;18.206;2023-11-19T09:24:46;1.53;;;1.53;;
8683;SDS011;4379;59.744;18.206;2023-11-19T09:27:14;1.80;;;1.67;;
8683;SDS011;4379;59.744;18.206;2023-11-19T09:29:42;1.93;;;1.87;;
8683;SDS011;4379;59.744;18.206;2023-11-19T09:32:09;1.60;;;1.50;;
8683;SDS011;4379;59.744;18.206;2023-11-19T09:34:36;2.00;;;1.90;;
8683;SDS011;4379;59.744;18.206;2023-11-19T09:37:03;1.60;;;1.60;;
8683;SDS011;4379;59.744;18.206;2023-11-19T09:39:46;1.70;;;1.63;;
8683;SDS011;4379;59.744;18.206;2023-11-19T09:42:13;1.80;;;1.80;;
8683;SDS011;4379;59.744;18.206;2023-11-19T09:44:40;1.70;;;1.70;;
8683;SDS011;4379;59.744;18.206;2023-11-19T09:47:10;2.20;;;2.10;;
8683;SDS011;4379;59.744;18.206;2023-11-19T09:49:39;1.93;;;1.90;;
8683;SDS011;4379;59.744;18.206;2023-11-19T09:52:06;2.00;;;1.90;;
8683;SDS011;4379;59.744;18.206;2023-11-19T09:54:33;1.87;;;1.80;;
8683;SDS011;4379;59.744;18.206;2023-11-19T09:57:00;1.90;;;1.80;;
8683;SDS011;4379;59.744;18.206;2023-11-19T09:59:32;2.30;;;2.10;;
8683;SDS011;4379;59.744;18.206;2023-11-19T10:02:00;1.90;;;1.80;;
8683;SDS011;4379;59.744;18.206;2023-11-19T10:04:29;2.10;;;2.00;;
8683;SDS011;4379;59.744;18.206;2023-11-19T10:06:57;2.10;;;2.00;;
8683;SDS011;4379;59.744;18.206;2023-11-19T10:09:24;1.60;;;1.60;;
8683;SDS011;4379;59.744;18.206;2023-11-19T10:11:52;1.57;;;1.57;;
8683;SDS011;4379;59.744;18.206;2023-11-19T10:14:22;1.60;;;1.60;;
8683;SDS011;4379;59.744;18.206;2023-11-19T10:16:50;1.33;;;1.33;;
8683;SDS011;4379;59.744;18.206;2023-11-19T10:19:20;1.50;;;1.50;;
8683;SDS011;4379;59.744;18.206;2023-11-19T10:21:48;1.50;;;1.50;;
8683;SDS011;4379;59.744;18.206;2023-11-19T10:24:15;1.63;;;1.60;;
8683;SDS011;4379;59.744;18.206;2023-11-19T10:26:45;1.67;;;1.60;;
8683;SDS011;4379;59.744;18.206;2023-11-19T10:29:12;1.70;;;1.60;;
8683;SDS011;4379;59.744;18.206;2023-11-19T10:31:41;1.63;;;1.63;;
8683;SDS011;4379;59.744;18.206;2023-11-19T10:34:45;1.80;;;1.70;;
8683;SDS011;4379;59.744;18.206;2023-11-19T10:37:30;1.83;;;1.73;;
8683;SDS011;4379;59.744;18.206;2023-11-19T10:40:02;1.90;;;1.80;;
8683;SDS011;4379;59.744;18.206;2023-11-19T10:42:31;1.60;;;1.60;;
8683;SDS011;4379;59.744;18.206;2023-11-19T10:44:59;1.93;;;1.83;;
8683;SDS011;4379;59.744;18.206;2023-11-19T10:47:26;1.70;;;1.70;;
8683;SDS011;4379;59.744;18.206;2023-11-19T10:49:58;1.87;;;1.80;;
8683;SDS011;4379;59.744;18.206;2023-11-19T10:52:25;1.70;;;1.67;;
8683;SDS011;4379;59.744;18.206;2023-11-19T10:54:54;1.90;;;1.90;;
8683;SDS011;4379;59.744;18.206;2023-11-19T10:57:26;1.80;;;1.70;;
8683;SDS011;4379;59.744;18.206;2023-11-19T11:00:00;1.90;;;1.80;;
8683;SDS011;4379;59.744;18.206;2023-11-19T11:02:30;1.93;;;1.83;;
8683;SDS011;4379;59.744;18.206;2023-11-19T11:05:02;1.90;;;1.80;;
8683;SDS011;4379;59.744;18.206;2023-11-19T11:07:30;1.50;;;1.50;;
8683;SDS011;4379;59.744;18.206;2023-11-19T11:10:07;1.50;;;1.40;;
8683;SDS011;4379;59.744;18.206;2023-11-19T11:12:36;1.60;;;1.60;;
8683;SDS011;4379;59.744;18.206;2023-11-19T11:15:08;1.40;;;1.40;;
8683;SDS011;4379;59.744;18.206;2023-11-19T11:17:42;1.40;;;1.40;;
8683;SDS011;4379;59.744;18.206;2023-11-19T11:20:11;1.60;;;1.57;;
8683;SDS011;4379;59.744;18.206;2023-11-19T11:39:36;1.90;;;1.60;;
8683;SDS011;4379;59.744;18.206;2023-11-19T11:45:01;1.90;;;1.80;;
8683;SDS011;4379;59.744;18.206;2023-11-19T11:55:28;1.40;;;1.40;;
8683;SDS011;4379;59.744;18.206;2023-11-19T11:58:18;1.50;;;1.50;;
8683;SDS011;4379;59.744;18.206;2023-11-19T12:00:46;1.63;;;1.60;;
8683;SDS011;4379;59.744;18.206;2023-11-19T12:03:15;2.90;;;2.80;;
8683;SDS011;4379;59.744;18.206;2023-11-19T12:05:46;2.80;;;2.67;;
8683;SDS011;4379;59.744;18.206;2023-11-19T12:08:15;2.20;;;2.10;;
8683;SDS011;4379;59.744;18.206;2023-11-19T12:10:55;1.97;;;1.87;;
8683;SDS011;4379;59.744;18.206;2023-11-19T12:13:25;1.90;;;1.63;;
8683;SDS011;4379;59.744;18.206;2023-11-19T12:16:10;1.93;;;1.83;;
8683;SDS011;4379;59.744;18.206;2023-11-19T12:18:38;2.10;;;2.00;;
8683;SDS011;4379;59.744;18.206;2023-11-19T12:21:07;2.00;;;1.90;;
8683;SDS011;4379;59.744;18.206;2023-11-19T12:23:43;2.27;;;2.17;;
8683;SDS011;4379;59.744;18.206;2023-11-19T12:29:02;2.10;;;2.00;;
8683;SDS011;4379;59.744;18.206;2023-11-19T12:31:35;1.70;;;1.60;;
8683;SDS011;4379;59.744;18.206;2023-11-19T12:34:06;1.90;;;1.80;;
8683;SDS011;4379;59.744;18.206;2023-11-19T12:36:34;1.80;;;1.70;;
8683;SDS011;4379;59.744;18.206;2023-11-19T12:39:01;1.40;;;1.40;;
8683;SDS011;4379;59.744;18.206;2023-11-19T12:41:29;1.40;;;1.40;;
8683;SDS011;4379;59.744;18.206;2023-11-19T12:44:19;1.60;;;1.50;;
8683;SDS011;4379;59.744;18.206;2023-11-19T12:46:44;1.57;;;1.50;;
8683;SDS011;4379;59.744;18.206;2023-11-19T12:49:11;1.67;;;1.67;;
8683;SDS011;4379;59.744;18.206;2023-11-19T12:51:39;1.43;;;1.40;;
8683;SDS011;4379;59.744;18.206;2023-11-19T12:54:06;1.43;;;1.43;;
8683;SDS011;4379;59.744;18.206;2023-11-19T12:56:33;2.00;;;1.90;;
8683;SDS011;4379;59.744;18.206;2023-11-19T12:59:09;1.73;;;1.63;;
8683;SDS011;4379;59.744;18.206;2023-11-19T13:01:38;1.90;;;1.80;;
8683;SDS011;4379;59.744;18.206;2023-11-19T13:04:15;1.63;;;1.60;;
8683;SDS011;4379;59.744;18.206;2023-11-19T13:06:47;2.13;;;2.03;;
8683;SDS011;4379;59.744;18.206;2023-11-19T13:09:21;1.50;;;1.50;;
8683;SDS011;4379;59.744;18.206;2023-11-19T13:11:53;1.80;;;1.70;;
8683;SDS011;4379;59.744;18.206;2023-11-19T13:14:22;1.90;;;1.80;;
8683;SDS011;4379;59.744;18.206;2023-11-19T13:16:49;1.50;;;1.50;;
8683;SDS011;4379;59.744;18.206;2023-11-19T13:19:17;2.07;;;1.97;;
8683;SDS011;4379;59.744;18.206;2023-11-19T13:21:45;2.17;;;2.07;;
8683;SDS011;4379;59.744;18.206;2023-11-19T13:24:14;2.47;;;2.37;;
8683;SDS011;4379;59.744;18.206;2023-11-19T13:26:41;2.10;;;2.00;;
8683;SDS011;4379;59.744;18.206;2023-11-19T13:29:08;2.03;;;1.93;;
8683;SDS011;4379;59.744;18.206;2023-11-19T13:31:37;2.67;;;2.57;;
8683;SDS011;4379;59.744;18.206;2023-11-19T13:34:04;2.37;;;2.27;;
8683;SDS011;4379;59.744;18.206;2023-11-19T13:36:34;2.20;;;2.10;;
8683;SDS011;4379;59.744;18.206;2023-11-19T13:39:01;1.70;;;1.67;;
8683;SDS011;4379;59.744;18.206;2023-11-19T13:41:28;1.63;;;1.60;;
8683;SDS011;4379;59.744;18.206;2023-11-19T13:43:55;1.60;;;1.50;;
8683;SDS011;4379;59.744;18.206;2023-11-19T13:46:22;1.70;;;1.70;;
8683;SDS011;4379;59.744;18.206;2023-11-19T13:48:49;2.00;;;1.90;;
8683;SDS011;4379;59.744;18.206;2023-11-19T13:51:16;1.53;;;1.53;;
8683;SDS011;4379;59.744;18.206;2023-11-19T13:53:44;1.90;;;1.80;;
8683;SDS011;4379;59.744;18.206;2023-11-19T13:56:14;1.70;;;1.60;;
8683;SDS011;4379;59.744;18.206;2023-11-19T13:58:41;2.00;;;1.90;;
8683;SDS011;4379;59.744;18.206;2023-11-19T14:01:08;1.60;;;1.60;;
8683;SDS011;4379;59.744;18.206;2023-11-19T14:03:35;1.60;;;1.60;;
8683;SDS011;4379;59.744;18.206;2023-11-19T14:06:03;2.00;;;1.90;;
8683;SDS011;4379;59.744;18.206;2023-11-19T14:08:30;1.90;;;1.80;;
8683;SDS011;4379;59.744;18.206;2023-11-19T14:10:57;1.67;;;1.67;;
8683;SDS011;4379;59.744;18.206;2023-11-19T14:13:25;1.83;;;1.73;;
8683;SDS011;4379;59.744;18.206;2023-11-19T14:15:52;1.77;;;1.73;;
8683;SDS011;4379;59.744;18.206;2023-11-19T14:18:19;2.00;;;1.90;;
8683;SDS011;4379;59.744;18.206;2023-11-19T14:20:46;2.23;;;2.10;;
8683;SDS011;4379;59.744;18.206;2023-11-19T14:23:13;2.03;;;1.93;;
8683;SDS011;4379;59.744;18.206;2023-11-19T14:25:40;2.20;;;2.10;;
8683;SDS011;4379;59.744;18.206;2023-11-19T14:28:07;2.57;;;2.37;;
8683;SDS011;4379;59.744;18.206;2023-11-19T14:30:35;2.43;;;2.33;;
8683;SDS011;4379;59.744;18.206;2023-11-19T14:33:02;2.90;;;2.50;;
8683;SDS011;4379;59.744;18.206;2023-11-19T14:35:30;2.30;;;2.20;;
8683;SDS011;4379;59.744;18.206;2023-11-19T14:37:59;2.13;;;2.03;;
8683;SDS011;4379;59.744;18.206;2023-11-19T14:40:26;2.57;;;2.40;;
8683;SDS011;4379;59.744;18.206;2023-11-19T14:42:56;2.47;;;2.37;;
8683;SDS011;4379;59.744;18.206;2023-11-19T14:45:24;2.33;;;2.23;;
8683;SDS011;4379;59.744;18.206;2023-11-19T14:47:51;2.43;;;2.33;;
8683;SDS011;4379;59.744;18.206;2023-11-19T14:50:19;2.60;;;2.50;;
8683;SDS011;4379;59.744;18.206;2023-11-19T14:52:46;2.47;;;2.20;;
8683;SDS011;4379;59.744;18.206;2023-11-19T14:55:13;2.30;;;2.20;;
8683;SDS011;4379;59.744;18.206;2023-11-19T14:57:40;2.37;;;2.27;;
8683;SDS011;4379;59.744;18.206;2023-11-19T15:00:14;2.70;;;2.60;;
8683;SDS011;4379;59.744;18.206;2023-11-19T15:02:42;2.40;;;2.30;;
8683;SDS011;4379;59.744;18.206;2023-11-19T15:05:09;2.57;;;2.47;;
8683;SDS011;4379;59.744;18.206;2023-11-19T15:07:39;2.90;;;2.80;;
8683;SDS011;4379;59.744;18.206;2023-11-19T15:10:06;2.57;;;2.37;;
8683;SDS011;4379;59.744;18.206;2023-11-19T15:12:37;2.57;;;2.47;;
8683;SDS011;4379;59.744;18.206;2023-11-19T15:15:06;2.50;;;2.40;;
8683;SDS011;4379;59.744;18.206;2023-11-19T15:17:35;2.53;;;2.23;;
8683;SDS011;4379;59.744;18.206;2023-11-19T15:20:03;2.50;;;2.40;;
8683;SDS011;4379;59.744;18.206;2023-11-19T15:22:31;2.40;;;2.30;;
8683;SDS011;4379;59.744;18.206;2023-11-19T15:24:58;2.30;;;2.20;;
8683;SDS011;4379;59.744;18.206;2023-11-19T15:27:25;2.57;;;2.47;;
8683;SDS011;4379;59.744;18.206;2023-11-19T15:29:53;2.13;;;2.03;;
8683;SDS011;4379;59.744;18.206;2023-11-19T15:32:20;2.27;;;2.17;;
8683;SDS011;4379;59.744;18.206;2023-11-19T15:34:47;2.30;;;2.20;;
8683;SDS011;4379;59.744;18.206;2023-11-19T15:37:15;2.33;;;2.23;;
8683;SDS011;4379;59.744;18.206;2023-11-19T15:39:42;2.50;;;2.40;;